createdAt,value
2017-10-04T00:00:54.288Z,998.46
2017-10-04T00:01:54.642Z,998.49
2017-10-04T00:02:54.838Z,998.39
2017-10-04T00:03:55.096Z,998.33
2017-10-04T00:04:54.847Z,998.36
2017-10-04T00:05:55.171Z,998.41
2017-10-04T00:06:54.898Z,998.40
2017-10-04T00:07:54.334Z,998.35
2017-10-04T00:08:54.260Z,998.36
2017-10-04T00:09:54.296Z,998.42
2017-10-04T00:10:54.323Z,998.45
2017-10-04T00:11:53.660Z,998.42
2017-10-04T00:12:53.711Z,998.41
2017-10-04T00:13:53.752Z,998.38
2017-10-04T00:14:53.705Z,998.46
2017-10-04T00:15:53.832Z,998.48
2017-10-04T00:16:53.762Z,998.38
2017-10-04T00:17:53.896Z,998.35
2017-10-04T00:18:53.754Z,998.46
2017-10-04T00:19:54.872Z,998.44
2017-10-04T00:20:55.100Z,998.47
2017-10-04T00:21:54.919Z,998.45
2017-10-04T00:22:54.963Z,998.42
2017-10-04T00:23:54.301Z,998.35
2017-10-04T00:24:54.525Z,998.42
2017-10-04T00:25:54.515Z,998.38
2017-10-04T00:26:54.398Z,998.41
2017-10-04T00:27:53.727Z,998.35
2017-10-04T00:28:53.771Z,998.36
2017-10-04T00:29:53.838Z,998.33
2017-10-04T00:30:53.748Z,998.35
2017-10-04T00:31:53.874Z,998.30
2017-10-04T00:32:53.711Z,998.29
2017-10-04T00:33:54.448Z,998.32
2017-10-04T00:34:54.591Z,998.36
2017-10-04T00:35:54.734Z,998.33
2017-10-04T00:36:55.053Z,998.28
2017-10-04T00:37:54.768Z,998.30
2017-10-04T00:38:55.093Z,998.30
2017-10-04T00:39:54.815Z,998.34
2017-10-04T00:40:54.525Z,998.35
2017-10-04T00:41:54.353Z,998.35
2017-10-04T00:42:54.384Z,998.35
2017-10-04T00:46:26.179Z,998.35
2017-10-04T00:46:33.694Z,998.34
2017-10-04T00:46:34.712Z,998.36
2017-10-04T00:46:35.929Z,998.41
2017-10-04T00:46:53.867Z,998.34
2017-10-04T00:47:54.380Z,998.47
2017-10-04T00:48:54.719Z,998.47
2017-10-04T00:49:54.632Z,998.46
2017-10-04T00:50:54.467Z,998.43
2017-10-04T00:51:54.402Z,998.42
2017-10-04T00:52:55.134Z,998.37
2017-10-04T00:53:55.187Z,998.38
2017-10-04T00:54:55.101Z,998.41
2017-10-04T00:55:55.120Z,998.43
2017-10-04T00:56:54.731Z,998.40
2017-10-04T00:57:55.149Z,998.48
2017-10-04T00:58:55.373Z,998.49
2017-10-04T00:59:54.398Z,998.48
2017-10-04T01:03:12.365Z,998.46
2017-10-04T01:03:13.282Z,998.45
2017-10-04T01:03:14.487Z,998.39
2017-10-04T01:05:54.478Z,998.46
2017-10-04T01:05:55.494Z,998.50
2017-10-04T01:05:56.508Z,998.55
2017-10-04T01:11:18.502Z,998.54
2017-10-04T01:11:19.313Z,998.54
2017-10-04T01:11:20.220Z,998.58
2017-10-04T01:11:21.031Z,998.58
2017-10-04T01:11:21.849Z,998.61
2017-10-04T01:14:04.894Z,998.59
2017-10-04T01:14:06.023Z,998.67
2017-10-04T01:14:07.053Z,998.69
2017-10-04T01:14:53.941Z,998.58
2017-10-04T01:17:49.362Z,998.56
2017-10-04T01:17:50.376Z,998.60
2017-10-04T01:17:54.214Z,998.61
2017-10-04T01:20:32.982Z,998.58
2017-10-04T01:20:33.796Z,998.56
2017-10-04T01:20:54.542Z,998.62
2017-10-04T01:23:49.260Z,998.63
2017-10-04T01:23:50.279Z,998.54
2017-10-04T01:23:53.990Z,998.52
2017-10-04T01:27:07.640Z,998.47
2017-10-04T01:27:08.446Z,998.46
2017-10-04T01:27:09.267Z,998.45
2017-10-04T01:29:49.883Z,998.37
2017-10-04T01:29:50.889Z,998.37
2017-10-04T01:29:54.006Z,998.30
2017-10-04T01:32:36.837Z,998.30
2017-10-04T01:32:37.648Z,998.31
2017-10-04T01:32:54.088Z,998.34
2017-10-04T01:35:46.141Z,998.40
2017-10-04T01:35:46.957Z,998.42
2017-10-04T01:35:53.970Z,998.45
2017-10-04T01:38:33.165Z,998.49
2017-10-04T01:38:33.959Z,998.46
2017-10-04T01:38:53.908Z,998.44
2017-10-04T01:41:49.619Z,998.38
2017-10-04T01:41:50.730Z,998.35
2017-10-04T01:41:53.839Z,998.24
2017-10-04T01:44:30.917Z,998.24
2017-10-04T01:44:31.721Z,998.32
2017-10-04T01:44:53.974Z,998.21
2017-10-04T01:47:49.074Z,998.42
2017-10-04T01:47:49.885Z,998.41
2017-10-04T01:47:54.003Z,998.31
2017-10-04T01:51:08.149Z,998.29
2017-10-04T01:51:08.962Z,998.26
2017-10-04T01:51:10.084Z,998.29
2017-10-04T01:53:46.162Z,998.24
2017-10-04T01:53:46.969Z,998.28
2017-10-04T01:53:54.013Z,998.20
2017-10-04T01:57:09.546Z,998.16
2017-10-04T01:57:10.457Z,998.26
2017-10-04T01:57:11.475Z,998.29
2017-10-04T01:59:51.651Z,998.29
2017-10-04T01:59:52.455Z,998.20
2017-10-04T01:59:54.076Z,998.22
2017-10-04T02:00:54.590Z,998.18
2017-10-04T02:01:54.620Z,998.23
2017-10-04T02:02:54.729Z,998.21
2017-10-04T02:03:55.264Z,998.25
2017-10-04T02:04:55.596Z,998.23
2017-10-04T02:05:55.412Z,998.20
2017-10-04T02:06:55.350Z,998.16
2017-10-04T02:07:55.307Z,998.13
2017-10-04T02:08:55.324Z,998.16
2017-10-04T02:09:55.546Z,998.10
2017-10-04T02:10:54.666Z,998.05
2017-10-04T02:11:54.689Z,998.08
2017-10-04T02:12:54.710Z,998.01
2017-10-04T02:13:54.121Z,998.01
2017-10-04T02:14:54.946Z,998.11
2017-10-04T02:15:54.167Z,998.10
2017-10-04T02:16:54.091Z,998.10
2017-10-04T02:17:54.143Z,998.10
2017-10-04T02:18:54.075Z,998.09
2017-10-04T02:19:54.798Z,998.08
2017-10-04T02:20:54.810Z,998.11
2017-10-04T02:21:55.327Z,998.08
2017-10-04T02:22:55.348Z,998.08
2017-10-04T02:23:55.060Z,998.06
2017-10-04T02:24:55.172Z,998.10
2017-10-04T02:25:55.707Z,998.01
2017-10-04T02:26:54.729Z,998.05
2017-10-04T02:27:54.749Z,998.10
2017-10-04T02:28:54.789Z,998.02
2017-10-04T02:29:54.904Z,998.11
2017-10-04T02:30:54.838Z,998.04
2017-10-04T02:31:54.193Z,998.08
2017-10-04T02:32:54.113Z,998.05
2017-10-04T02:33:54.140Z,998.07
2017-10-04T02:34:54.148Z,998.12
2017-10-04T02:35:54.171Z,998.05
2017-10-04T02:36:55.079Z,998.13
2017-10-04T02:37:55.908Z,998.10
2017-10-04T02:38:54.222Z,998.10
2017-10-04T02:39:55.369Z,998.16
2017-10-04T02:40:55.190Z,998.13
2017-10-04T02:41:55.423Z,998.13
2017-10-04T02:42:55.346Z,998.18
2017-10-04T02:43:55.466Z,998.17
2017-10-04T02:44:55.190Z,998.16
2017-10-04T02:45:54.825Z,998.12
2017-10-04T02:46:54.955Z,998.06
2017-10-04T02:47:54.897Z,998.02
2017-10-04T02:48:54.215Z,998.09
2017-10-04T02:49:54.248Z,998.06
2017-10-04T02:50:54.083Z,998.11
2017-10-04T02:51:54.224Z,998.15
2017-10-04T02:52:54.245Z,998.15
2017-10-04T02:53:54.379Z,998.01
2017-10-04T02:54:54.195Z,998.04
2017-10-04T02:55:55.436Z,998.06
2017-10-04T02:56:55.454Z,998.04
2017-10-04T02:57:55.475Z,998.07
2017-10-04T02:58:55.185Z,998.10
2017-10-04T02:59:55.510Z,998.03
2017-10-04T03:00:55.449Z,998.02
2017-10-04T03:01:55.675Z,998.01
2017-10-04T03:02:54.921Z,997.99
2017-10-04T03:03:54.939Z,998.08
2017-10-04T03:04:54.871Z,998.03
2017-10-04T03:05:54.198Z,998.01
2017-10-04T03:06:54.226Z,998.04
2017-10-04T03:07:54.267Z,998.09
2017-10-04T03:08:54.275Z,998.04
2017-10-04T03:09:54.308Z,997.96
2017-10-04T03:10:54.231Z,998.00
2017-10-04T03:11:54.949Z,998.01
2017-10-04T03:12:55.490Z,997.94
2017-10-04T03:13:55.299Z,998.01
2017-10-04T03:14:55.526Z,998.00
2017-10-04T03:15:55.870Z,997.98
2017-10-04T03:16:55.487Z,997.98
2017-10-04T03:17:55.537Z,997.89
2017-10-04T03:18:55.565Z,997.99
2017-10-04T03:19:54.900Z,997.98
2017-10-04T03:20:54.926Z,997.93
2017-10-04T03:21:54.868Z,997.95
2017-10-04T03:22:55.030Z,997.92
2017-10-04T03:23:55.052Z,997.99
2017-10-04T03:24:54.356Z,997.91
2017-10-04T03:25:54.296Z,997.90
2017-10-04T03:26:54.315Z,997.91
2017-10-04T03:27:54.331Z,997.93
2017-10-04T03:28:54.341Z,997.87
2017-10-04T03:29:54.966Z,997.84
2017-10-04T03:30:54.991Z,997.83
2017-10-04T03:31:55.625Z,997.88
2017-10-04T03:32:55.541Z,997.84
2017-10-04T03:33:55.665Z,997.92
2017-10-04T03:34:55.686Z,997.84
2017-10-04T03:35:55.630Z,997.80
2017-10-04T03:36:55.559Z,997.87
2017-10-04T03:37:54.968Z,997.90
2017-10-04T03:38:55.384Z,997.93
2017-10-04T03:39:54.307Z,997.90
2017-10-04T03:40:55.020Z,997.85
2017-10-04T03:41:55.339Z,997.85
2017-10-04T03:42:55.257Z,997.92
2017-10-04T03:43:54.463Z,997.81
2017-10-04T03:44:54.488Z,997.69
2017-10-04T03:45:54.348Z,997.72
2017-10-04T03:46:54.950Z,997.75
2017-10-04T03:47:55.588Z,997.69
2017-10-04T03:48:55.104Z,997.75
2017-10-04T03:49:55.717Z,997.67
2017-10-04T03:50:55.844Z,997.75
2017-10-04T03:51:38.930Z,997.75
2017-10-04T03:53:30.211Z,997.64
2017-10-04T03:53:32.006Z,997.67
2017-10-04T03:53:54.610Z,997.68
2017-10-04T03:54:56.241Z,997.73
2017-10-04T03:55:55.157Z,997.75
2017-10-04T03:56:55.169Z,997.67
2017-10-04T03:57:55.188Z,997.72
2017-10-04T03:58:55.126Z,997.77
2017-10-04T03:59:55.140Z,997.74
2017-10-04T04:00:55.174Z,997.65
2017-10-04T04:01:54.484Z,997.66
2017-10-04T04:02:54.617Z,997.77
2017-10-04T04:03:54.447Z,997.73
2017-10-04T04:04:54.458Z,997.76
2017-10-04T04:05:55.069Z,997.74
2017-10-04T04:06:55.691Z,997.72
2017-10-04T04:07:55.709Z,997.72
2017-10-04T04:08:55.825Z,997.70
2017-10-04T04:09:55.760Z,997.74
2017-10-04T04:10:55.792Z,997.77
2017-10-04T04:11:55.220Z,997.68
2017-10-04T04:12:55.357Z,997.83
2017-10-04T04:13:55.189Z,997.79
2017-10-04T04:14:55.126Z,997.88
2017-10-04T04:15:55.170Z,997.88
2017-10-04T04:16:54.490Z,997.91
2017-10-04T04:17:55.513Z,997.95
2017-10-04T04:18:54.440Z,997.93
2017-10-04T04:19:54.486Z,997.89
2017-10-04T04:20:54.604Z,997.88
2017-10-04T04:21:54.524Z,998.00
2017-10-04T04:22:54.546Z,997.89
2017-10-04T04:23:55.163Z,997.86
2017-10-04T04:24:55.681Z,997.87
2017-10-04T04:25:55.290Z,997.79
2017-10-04T04:26:55.714Z,997.79
2017-10-04T04:27:55.867Z,997.80
2017-10-04T04:28:55.865Z,997.76
2017-10-04T04:29:55.900Z,997.65
2017-10-04T04:30:55.239Z,997.76
2017-10-04T04:31:55.273Z,997.77
2017-10-04T04:32:55.213Z,997.65
2017-10-04T04:33:55.555Z,997.69
2017-10-04T04:34:54.578Z,997.64
2017-10-04T04:35:54.621Z,997.69
2017-10-04T04:36:54.557Z,997.71
2017-10-04T04:37:54.603Z,997.73
2017-10-04T04:38:54.747Z,997.74
2017-10-04T04:39:54.577Z,997.70
2017-10-04T04:40:54.735Z,997.68
2017-10-04T04:41:54.669Z,997.65
2017-10-04T04:42:54.674Z,997.63
2017-10-04T04:43:55.713Z,997.65
2017-10-04T04:44:55.854Z,997.66
2017-10-04T04:45:55.790Z,997.64
2017-10-04T04:46:55.416Z,997.61
2017-10-04T04:47:55.346Z,997.58
2017-10-04T04:48:56.095Z,997.58
2017-10-04T04:49:55.526Z,997.59
2017-10-04T04:50:55.297Z,997.58
2017-10-04T04:51:54.563Z,997.59
2017-10-04T04:52:54.630Z,997.50
2017-10-04T04:53:54.716Z,997.53
2017-10-04T04:54:55.709Z,997.48
2017-10-04T04:55:54.773Z,997.47
2017-10-04T04:56:54.632Z,997.45
2017-10-04T04:57:54.696Z,997.51
2017-10-04T04:58:54.774Z,997.50
2017-10-04T04:59:54.666Z,997.56
2017-10-04T05:00:54.683Z,997.49
2017-10-04T05:01:55.903Z,997.55
2017-10-04T05:02:55.670Z,997.51
2017-10-04T05:03:56.335Z,997.52
2017-10-04T05:04:55.387Z,997.60
2017-10-04T05:05:55.591Z,997.50
2017-10-04T05:06:55.345Z,997.52
2017-10-04T05:07:55.309Z,997.64
2017-10-04T05:08:55.288Z,997.67
2017-10-04T05:09:54.606Z,997.61
2017-10-04T05:10:54.675Z,997.63
2017-10-04T05:11:54.753Z,997.64
2017-10-04T05:12:55.474Z,997.61
2017-10-04T05:13:54.725Z,997.59
2017-10-04T05:14:54.744Z,997.67
2017-10-04T05:15:54.706Z,997.73
2017-10-04T05:16:55.345Z,997.74
2017-10-04T05:17:55.992Z,997.59
2017-10-04T05:18:55.924Z,997.58
2017-10-04T05:19:55.473Z,997.59
2017-10-04T05:20:56.016Z,997.58
2017-10-04T05:21:56.120Z,997.61
2017-10-04T05:22:55.770Z,997.64
2017-10-04T05:23:55.565Z,997.68
2017-10-04T05:24:55.365Z,997.62
2017-10-04T05:25:55.521Z,997.59
2017-10-04T05:26:55.699Z,997.63
2017-10-04T05:27:55.413Z,997.52
2017-10-04T05:28:54.767Z,997.54
2017-10-04T05:29:54.709Z,997.49
2017-10-04T05:30:54.806Z,997.56
2017-10-04T05:31:54.864Z,997.60
2017-10-04T05:32:54.836Z,997.55
2017-10-04T05:33:54.783Z,997.55
2017-10-04T05:34:55.414Z,997.62
2017-10-04T05:35:55.680Z,997.51
2017-10-04T05:36:55.930Z,997.41
2017-10-04T05:37:55.998Z,997.44
2017-10-04T05:38:55.744Z,997.42
2017-10-04T05:39:56.613Z,997.44
2017-10-04T05:40:55.609Z,997.42
2017-10-04T05:41:55.840Z,997.34
2017-10-04T05:42:55.524Z,997.41
2017-10-04T05:43:55.677Z,997.35
2017-10-04T05:44:55.529Z,997.38
2017-10-04T05:45:55.804Z,997.46
2017-10-04T05:46:54.736Z,997.35
2017-10-04T05:47:54.926Z,997.32
2017-10-04T05:48:55.809Z,997.39
2017-10-04T05:49:54.963Z,997.31
2017-10-04T05:50:54.889Z,997.42
2017-10-04T05:51:54.961Z,997.40
2017-10-04T05:52:54.934Z,997.38
2017-10-04T05:53:55.023Z,997.33
2017-10-04T05:54:54.981Z,997.25
2017-10-04T05:55:56.015Z,997.34
2017-10-04T05:56:56.151Z,997.33
2017-10-04T05:57:56.026Z,997.25
2017-10-04T05:58:56.167Z,997.31
2017-10-04T05:59:55.502Z,997.28
2017-10-04T06:00:56.363Z,997.31
2017-10-04T06:01:55.497Z,997.25
2017-10-04T06:02:55.751Z,997.25
2017-10-04T06:03:54.882Z,997.29
2017-10-04T06:04:54.829Z,997.22
2017-10-04T06:05:54.849Z,997.26
2017-10-04T06:06:54.812Z,997.26
2017-10-04T06:07:54.866Z,997.19
2017-10-04T06:08:54.896Z,997.24
2017-10-04T06:09:54.848Z,997.24
2017-10-04T06:10:56.193Z,997.24
2017-10-04T06:11:56.150Z,997.32
2017-10-04T06:12:56.209Z,997.28
2017-10-04T06:13:56.260Z,997.38
2017-10-04T06:14:56.036Z,997.30
2017-10-04T06:15:55.867Z,997.35
2017-10-04T06:16:56.214Z,997.41
2017-10-04T06:17:56.262Z,997.36
2017-10-04T06:18:55.477Z,997.36
2017-10-04T06:19:55.917Z,997.35
2017-10-04T06:20:54.867Z,997.28
2017-10-04T07:28:14.872Z,997.14
2017-10-04T07:28:54.948Z,997.13
2017-10-04T07:29:56.108Z,997.14
2017-10-04T07:30:56.691Z,997.18
2017-10-04T07:31:56.718Z,997.24
2017-10-04T07:32:56.648Z,997.22
2017-10-04T07:33:56.785Z,997.29
2017-10-04T07:34:56.709Z,997.24
2017-10-04T07:35:56.758Z,997.27
2017-10-04T07:36:56.689Z,997.25
2017-10-04T07:37:56.736Z,997.29
2017-10-04T07:38:56.773Z,997.23
2017-10-04T07:39:56.721Z,997.19
2017-10-04T07:40:56.766Z,997.15
2017-10-04T07:41:56.703Z,997.14
2017-10-04T07:42:56.749Z,997.15
2017-10-04T07:43:56.796Z,997.10
2017-10-04T07:44:56.714Z,997.13
2017-10-04T07:45:56.840Z,997.06
2017-10-04T07:46:56.783Z,997.12
2017-10-04T07:47:56.765Z,997.08
2017-10-04T07:48:56.790Z,997.16
2017-10-04T07:49:55.553Z,997.17
2017-10-04T07:50:57.091Z,997.17
2017-10-04T07:51:55.517Z,997.11
2017-10-04T07:52:55.570Z,997.13
2017-10-04T07:53:55.520Z,997.16
2017-10-04T07:54:55.555Z,997.18
2017-10-04T07:55:55.691Z,997.14
2017-10-04T07:56:55.616Z,997.06
2017-10-04T07:57:55.572Z,997.15
2017-10-04T07:58:55.608Z,997.09
2017-10-04T07:59:55.611Z,997.10
2017-10-04T08:00:56.839Z,997.18
2017-10-04T08:01:56.881Z,997.12
2017-10-04T08:02:56.818Z,997.09
2017-10-04T08:03:56.849Z,997.04
2017-10-04T08:04:56.793Z,997.12
2017-10-04T08:05:56.822Z,997.03
2017-10-04T08:06:56.852Z,997.10
2017-10-04T08:07:55.563Z,997.09
2017-10-04T08:08:55.599Z,997.10
2017-10-04T08:09:55.624Z,997.12
2017-10-04T08:10:55.654Z,997.05
2017-10-04T08:11:55.672Z,997.02
2017-10-04T08:12:55.597Z,997.02
2017-10-04T08:13:55.629Z,996.93
2017-10-04T08:14:55.661Z,996.91
2017-10-04T08:15:55.694Z,996.94
2017-10-04T08:16:55.655Z,996.90
2017-10-04T08:17:56.897Z,996.90
2017-10-04T08:18:56.820Z,996.94
2017-10-04T08:19:56.884Z,996.92
2017-10-04T08:20:56.930Z,996.88
2017-10-04T08:21:56.867Z,996.93
2017-10-04T08:22:56.816Z,996.89
2017-10-04T08:23:56.855Z,996.87
2017-10-04T08:24:56.897Z,996.87
2017-10-04T08:25:56.941Z,996.85
2017-10-04T08:26:55.682Z,996.84
2017-10-04T08:27:55.751Z,996.87
2017-10-04T08:28:55.693Z,996.81
2017-10-04T08:29:55.724Z,996.85
2017-10-04T08:30:55.761Z,996.91
2017-10-04T08:31:55.746Z,996.90
2017-10-04T08:32:55.679Z,996.76
2017-10-04T08:33:55.711Z,996.77
2017-10-04T08:34:55.754Z,996.82
2017-10-04T08:35:55.807Z,996.83
2017-10-04T08:36:55.665Z,996.86
2017-10-04T08:37:56.943Z,996.86
2017-10-04T08:38:56.923Z,996.95
2017-10-04T08:39:56.936Z,997.00
2017-10-04T08:40:56.897Z,996.92
2017-10-04T08:41:56.938Z,996.84
2017-10-04T08:42:55.703Z,996.77
2017-10-04T08:43:57.061Z,996.80
2017-10-04T08:44:55.753Z,996.70
2017-10-04T08:45:55.875Z,996.72
2017-10-04T08:46:55.731Z,996.68
2017-10-04T08:47:55.786Z,996.61
2017-10-04T08:48:55.870Z,996.63
2017-10-04T08:49:55.751Z,996.80
2017-10-04T08:50:55.731Z,996.75
2017-10-04T08:51:55.773Z,996.67
2017-10-04T08:52:56.933Z,996.70
2017-10-04T08:53:57.088Z,996.71
2017-10-04T08:54:57.024Z,996.78
2017-10-04T08:55:56.989Z,996.77
2017-10-04T08:56:57.027Z,996.61
2017-10-04T08:57:57.006Z,996.66
2017-10-04T08:58:57.047Z,996.72
2017-10-04T08:59:56.993Z,996.71
2017-10-04T09:00:55.774Z,996.85
2017-10-04T09:01:57.132Z,996.65
2017-10-04T09:02:55.767Z,996.63
2017-10-04T09:03:55.861Z,996.60
2017-10-04T09:04:55.808Z,996.69
2017-10-04T09:05:55.784Z,996.62
2017-10-04T09:06:55.906Z,996.64
2017-10-04T09:07:55.890Z,996.71
2017-10-04T09:08:55.779Z,996.63
2017-10-04T09:09:57.029Z,996.60
2017-10-04T09:10:57.089Z,996.59
2017-10-04T09:11:57.164Z,996.52
2017-10-04T09:12:57.118Z,996.52
2017-10-04T09:13:57.062Z,996.48
2017-10-04T09:14:57.111Z,996.40
2017-10-04T09:15:56.980Z,996.38
2017-10-04T09:16:57.156Z,996.34
2017-10-04T09:17:57.260Z,996.33
2017-10-04T09:18:58.142Z,996.44
2017-10-04T09:20:02.094Z,996.33
2017-10-04T09:20:56.171Z,996.38
2017-10-04T09:21:57.231Z,996.31
2017-10-04T09:22:57.072Z,996.33
2017-10-04T09:23:57.052Z,996.29
2017-10-04T09:24:57.107Z,996.25
2017-10-04T09:25:57.045Z,996.27
2017-10-04T09:26:57.184Z,996.25
2017-10-04T09:27:57.123Z,996.20
2017-10-04T09:28:57.053Z,996.12
2017-10-04T09:29:57.091Z,996.22
2017-10-04T09:30:57.128Z,996.14
2017-10-04T09:31:57.155Z,996.14
2017-10-04T09:32:57.103Z,996.22
2017-10-04T09:33:55.839Z,996.14
2017-10-04T09:34:57.129Z,996.12
2017-10-04T09:35:55.859Z,996.23
2017-10-04T09:36:56.004Z,996.23
2017-10-04T09:37:55.934Z,996.23
2017-10-04T09:38:55.927Z,996.20
2017-10-04T09:39:55.947Z,996.18
2017-10-04T09:40:55.910Z,996.20
2017-10-04T09:41:55.944Z,996.12
2017-10-04T09:42:55.903Z,996.08
2017-10-04T09:43:56.130Z,996.15
2017-10-04T09:44:55.885Z,996.16
2017-10-04T09:45:57.181Z,996.17
2017-10-04T09:46:57.243Z,996.13
2017-10-04T09:47:57.174Z,996.16
2017-10-04T09:48:57.168Z,996.07
2017-10-04T09:49:57.237Z,996.12
2017-10-04T09:50:57.132Z,996.15
2017-10-04T09:51:55.926Z,996.09
2017-10-04T09:52:57.224Z,996.07
2017-10-04T09:53:55.980Z,996.08
2017-10-04T09:54:56.007Z,996.18
2017-10-04T09:55:55.944Z,996.13
2017-10-04T09:56:56.030Z,996.20
2017-10-04T09:57:55.983Z,996.20
2017-10-04T09:58:55.971Z,996.15
2017-10-04T09:59:56.033Z,996.19
2017-10-04T10:00:56.019Z,996.12
2017-10-04T10:01:55.983Z,996.17
2017-10-04T10:02:57.175Z,996.22
2017-10-04T10:03:57.236Z,996.25
2017-10-04T10:04:57.214Z,996.27
2017-10-04T10:05:57.241Z,996.28
2017-10-04T10:06:57.172Z,996.32
2017-10-04T10:07:57.243Z,996.34
2017-10-04T10:08:57.299Z,996.36
2017-10-04T10:09:55.987Z,996.36
2017-10-04T10:10:55.986Z,996.34
2017-10-04T10:11:56.040Z,996.30
2017-10-04T10:12:56.011Z,996.20
2017-10-04T10:13:56.063Z,996.27
2017-10-04T10:14:56.011Z,996.18
2017-10-04T10:15:56.286Z,996.12
2017-10-04T10:16:56.034Z,996.13
2017-10-04T10:17:56.020Z,996.12
2017-10-04T10:18:56.079Z,996.13
2017-10-04T10:19:57.261Z,996.12
2017-10-04T10:20:57.296Z,996.25
2017-10-04T10:21:57.222Z,996.20
2017-10-04T10:22:57.274Z,996.16
2017-10-04T10:23:57.315Z,996.32
2017-10-04T10:24:57.271Z,996.25
2017-10-04T10:25:57.222Z,996.29
2017-10-04T10:26:57.306Z,996.32
2017-10-04T10:27:56.047Z,996.36
2017-10-04T10:28:56.154Z,996.32
2017-10-04T10:29:56.029Z,996.32
2017-10-04T10:30:56.083Z,996.46
2017-10-04T10:31:56.059Z,996.44
2017-10-04T10:32:56.073Z,996.46
2017-10-04T10:33:56.162Z,996.45
2017-10-04T10:34:56.129Z,996.41
2017-10-04T10:35:56.085Z,996.32
2017-10-04T10:36:56.088Z,996.33
2017-10-04T10:37:57.393Z,996.30
2017-10-04T10:39:02.204Z,996.28
2017-10-04T10:39:57.397Z,996.21
2017-10-04T10:40:57.322Z,996.11
2017-10-04T10:41:57.287Z,996.03
2017-10-04T10:42:57.399Z,996.03
2017-10-04T10:43:57.397Z,995.93
2017-10-04T10:44:57.378Z,995.73
2017-10-04T10:45:56.149Z,995.76
2017-10-04T10:46:56.123Z,995.70
2017-10-04T10:47:56.193Z,995.81
2017-10-04T10:48:56.142Z,995.85
2017-10-04T10:49:56.236Z,995.78
2017-10-04T10:50:56.192Z,995.92
2017-10-04T10:51:56.168Z,995.81
2017-10-04T10:52:56.229Z,995.80
2017-10-04T10:53:56.103Z,995.79
2017-10-04T10:54:57.394Z,995.76
2017-10-04T10:55:57.411Z,995.71
2017-10-04T10:56:57.359Z,995.58
2017-10-04T10:57:57.468Z,995.58
2017-10-04T10:58:57.394Z,995.61
2017-10-04T10:59:57.325Z,995.49
2017-10-04T11:00:57.613Z,995.46
2017-10-04T11:01:57.384Z,995.50
2017-10-04T11:02:57.439Z,995.48
2017-10-04T11:03:57.498Z,995.44
2017-10-04T11:04:56.235Z,995.37
2017-10-04T11:05:56.191Z,995.48
2017-10-04T11:06:56.247Z,995.45
2017-10-04T11:07:56.193Z,995.50
2017-10-04T11:08:56.165Z,995.52
2017-10-04T11:09:56.226Z,995.49
2017-10-04T11:10:56.178Z,995.56
2017-10-04T11:11:56.283Z,995.65
2017-10-04T11:12:56.233Z,995.75
2017-10-04T11:13:57.381Z,995.72
2017-10-04T11:14:57.431Z,995.68
2017-10-04T11:15:57.596Z,995.69
2017-10-04T11:16:57.827Z,995.76
2017-10-04T11:17:57.457Z,995.72
2017-10-04T11:18:57.520Z,995.80
2017-10-04T11:19:57.471Z,995.78
2017-10-04T11:20:56.256Z,995.74
2017-10-04T11:21:56.323Z,995.67
2017-10-04T11:22:56.263Z,995.70
2017-10-04T11:23:56.214Z,995.48
2017-10-04T11:24:56.282Z,995.48
2017-10-04T11:25:56.436Z,995.49
2017-10-04T11:26:56.313Z,995.51
2017-10-04T11:27:56.322Z,995.52
2017-10-04T11:28:56.264Z,995.54
2017-10-04T11:29:57.539Z,995.48
2017-10-04T11:30:57.521Z,995.53
2017-10-04T11:31:57.639Z,995.56
2017-10-04T11:32:57.479Z,995.68
2017-10-04T11:33:57.522Z,995.57
2017-10-04T11:34:57.581Z,995.57
2017-10-04T11:35:57.537Z,995.61
2017-10-04T11:36:57.559Z,995.62
2017-10-04T11:37:57.570Z,995.67
2017-10-04T11:38:56.349Z,995.61
2017-10-04T11:39:56.278Z,995.57
2017-10-04T11:40:56.339Z,995.63
2017-10-04T11:41:56.496Z,995.47
2017-10-04T11:42:56.466Z,995.39
2017-10-04T11:43:56.427Z,995.26
2017-10-04T11:44:56.381Z,995.39
2017-10-04T11:45:56.356Z,995.32
2017-10-04T11:46:56.441Z,995.40
2017-10-04T11:47:56.393Z,995.47
2017-10-04T11:48:57.552Z,995.41
2017-10-04T11:49:57.514Z,995.42
2017-10-04T11:50:57.592Z,995.32
2017-10-04T11:51:57.600Z,995.44
2017-10-04T11:52:57.576Z,995.47
2017-10-04T11:53:57.545Z,995.51
2017-10-04T11:54:57.623Z,995.52
2017-10-04T11:55:56.390Z,995.52
2017-10-04T11:56:56.443Z,995.43
2017-10-04T11:57:56.391Z,995.42
2017-10-04T11:58:56.455Z,995.43
2017-10-04T11:59:56.366Z,995.38
2017-10-04T12:00:56.345Z,995.22
2017-10-04T12:01:56.419Z,995.23
2017-10-04T12:02:56.378Z,995.21
2017-10-04T12:03:56.477Z,995.25
2017-10-04T12:04:56.457Z,995.15
2017-10-04T12:05:57.596Z,995.09
2017-10-04T12:06:57.645Z,995.11
2017-10-04T12:07:57.602Z,995.24
2017-10-04T12:08:57.560Z,995.18
2017-10-04T12:09:57.660Z,995.15
2017-10-04T12:10:57.578Z,995.03
2017-10-04T12:11:56.380Z,994.96
2017-10-04T12:12:56.370Z,994.99
2017-10-04T12:13:56.420Z,995.00
2017-10-04T12:14:56.481Z,995.02
2017-10-04T12:15:56.452Z,995.08
2017-10-04T12:16:56.390Z,995.10
2017-10-04T12:17:56.735Z,994.98
2017-10-04T12:18:56.404Z,995.11
2017-10-04T12:19:56.451Z,995.05
2017-10-04T12:20:56.496Z,995.06
2017-10-04T12:21:56.436Z,995.05
2017-10-04T12:22:57.690Z,994.95
2017-10-04T12:23:57.650Z,995.07
2017-10-04T12:24:57.707Z,995.09
2017-10-04T12:25:57.708Z,995.04
2017-10-04T12:26:57.656Z,995.02
2017-10-04T12:27:57.718Z,995.02
2017-10-04T12:28:57.761Z,995.16
2017-10-04T12:29:57.695Z,995.10
2017-10-04T12:30:56.526Z,995.04
2017-10-04T12:31:56.511Z,995.07
2017-10-04T12:32:56.454Z,995.18
2017-10-04T12:33:56.612Z,995.22
2017-10-04T12:34:56.485Z,995.21
2017-10-04T12:35:56.455Z,995.14
2017-10-04T12:36:56.513Z,995.14
2017-10-04T12:37:56.456Z,995.25
2017-10-04T12:38:57.726Z,995.21
2017-10-04T12:39:57.774Z,995.19
2017-10-04T12:40:58.132Z,995.29
2017-10-04T12:41:57.713Z,995.21
2017-10-04T12:42:57.699Z,995.26
2017-10-04T12:43:57.769Z,995.22
2017-10-04T12:44:57.718Z,995.27
2017-10-04T12:45:57.759Z,995.25
2017-10-04T12:46:56.509Z,995.30
2017-10-04T12:47:56.586Z,995.24
2017-10-04T12:48:56.632Z,995.10
2017-10-04T12:49:56.565Z,995.09
2017-10-04T12:50:56.520Z,995.14
2017-10-04T12:51:56.559Z,995.10
2017-10-04T12:52:56.592Z,995.00
2017-10-04T12:53:56.564Z,994.94
2017-10-04T12:54:56.541Z,994.97
2017-10-04T12:55:57.714Z,1001.85
2017-10-04T12:56:57.809Z,995.01
2017-10-04T12:57:57.792Z,994.95
2017-10-04T12:58:57.904Z,994.97
2017-10-04T12:59:57.763Z,994.97
2017-10-04T13:00:57.900Z,994.95
2017-10-04T13:01:57.771Z,995.07
2017-10-04T13:02:57.796Z,995.09
2017-10-04T13:03:57.917Z,995.02
2017-10-04T13:04:57.881Z,995.05
2017-10-04T13:05:56.624Z,994.93
2017-10-04T13:06:56.610Z,995.17
2017-10-04T13:07:56.610Z,995.08
2017-10-04T13:08:56.676Z,995.07
2017-10-04T13:09:56.647Z,995.25
2017-10-04T13:10:56.600Z,995.05
2017-10-04T13:11:56.579Z,995.02
2017-10-04T13:12:57.838Z,995.01
2017-10-04T13:13:57.918Z,995.02
2017-10-04T13:14:57.885Z,995.05
2017-10-04T13:15:57.853Z,995.02
2017-10-04T13:16:57.792Z,995.05
2017-10-04T13:17:57.843Z,994.94
2017-10-04T13:18:57.886Z,995.03
2017-10-04T13:19:57.853Z,995.03
2017-10-04T13:20:57.895Z,994.99
2017-10-04T13:21:56.625Z,994.93
2017-10-04T13:22:56.665Z,994.97
2017-10-04T13:23:56.697Z,994.95
2017-10-04T13:24:56.642Z,994.96
2017-10-04T13:25:56.606Z,994.89
2017-10-04T13:26:56.686Z,994.91
2017-10-04T13:27:56.716Z,994.91
2017-10-04T13:28:56.775Z,994.94
2017-10-04T13:29:56.662Z,994.86
2017-10-04T13:30:59.670Z,994.86
2017-10-04T13:31:56.627Z,994.91
2017-10-04T13:32:57.884Z,994.96